createdAt,value
2023-03-23T15:59:25.460Z,45213.63
2023-03-23T16:04:31.426Z,45249.56
2023-03-23T16:09:35.697Z,45235.59
2023-03-23T16:14:40.593Z,45255.56
2023-03-23T16:19:46.171Z,45239.59
2023-03-23T16:24:50.325Z,45231.59
2023-03-23T16:30:02.913Z,45251.56
2023-03-23T16:35:10.429Z,45257.56
2023-03-23T16:40:16.533Z,45227.63
2023-03-23T16:45:21.181Z,45239.59
2023-03-23T16:50:26.760Z,45243.59
2023-03-23T16:55:32.719Z,45195.66
2023-03-23T17:00:38.518Z,45225.63
2023-03-23T17:05:45.228Z,45191.69
2023-03-23T17:10:49.874Z,45229.63
2023-03-23T17:15:56.769Z,45197.66
2023-03-23T17:21:02.395Z,45191.69
2023-03-23T17:26:07.375Z,45173.72
2023-03-23T17:31:11.887Z,45195.66
2023-03-23T17:36:17.582Z,45167.72
2023-03-23T17:41:22.088Z,45195.66
2023-03-23T17:46:26.624Z,45195.66
2023-03-23T17:51:32.443Z,45171.72
2023-03-23T17:56:36.810Z,45157.75
2023-03-23T18:01:41.213Z,45187.69
2023-03-23T18:06:47.336Z,45177.69
2023-03-23T18:11:52.492Z,45179.69
2023-03-23T18:16:57.264Z,45185.69
2023-03-23T18:22:03.424Z,45153.75
2023-03-23T18:27:07.786Z,45201.66
2023-03-23T18:32:11.985Z,45181.69
2023-03-23T18:37:18.417Z,45171.72
2023-03-23T18:42:22.706Z,45179.69
2023-03-23T18:47:28.686Z,45237.59
2023-03-23T18:52:34.473Z,45199.66
2023-03-23T18:57:40.929Z,45207.66
2023-03-23T19:02:45.153Z,45225.63
2023-03-23T19:07:58.556Z,45227.63
2023-03-23T19:13:03.201Z,45233.59
2023-03-23T19:18:08.280Z,45179.69
2023-03-23T19:23:14.231Z,45181.69
2023-03-23T19:33:27.253Z,45195.66
2023-03-23T19:38:33.195Z,45183.69
2023-03-23T19:43:37.866Z,45235.59
2023-03-23T19:48:42.417Z,45229.63
2023-03-23T19:53:48.745Z,45213.63
2023-03-23T19:58:52.933Z,45215.63
2023-03-23T20:03:59.971Z,45231.59
2023-03-23T20:09:07.533Z,45225.63
2023-03-23T20:14:11.905Z,45191.69
2023-03-23T20:19:16.562Z,45231.59
2023-03-23T20:24:22.522Z,45243.59
2023-03-23T20:29:26.756Z,45223.63
2023-03-23T20:34:31.645Z,45233.59
2023-03-23T20:39:37.881Z,45237.59
2023-03-23T20:44:43.083Z,45235.59
2023-03-23T20:49:52.744Z,45225.63
2023-03-23T20:55:03.352Z,45227.63
2023-03-23T21:00:09.713Z,45203.66
2023-03-23T21:05:14.928Z,45201.66
2023-03-23T21:10:23.124Z,45187.69
2023-03-23T21:15:27.764Z,45193.69
2023-03-23T21:20:32.470Z,45179.69
2023-03-23T21:25:38.448Z,45191.69
2023-03-23T21:30:45.805Z,45219.63
2023-03-23T21:35:50.331Z,45187.69
2023-03-23T21:40:57.348Z,45195.66
2023-03-23T21:46:05.474Z,45183.69
2023-03-23T21:51:13.169Z,45199.66
2023-03-23T21:56:19.464Z,45183.69
2023-03-23T22:01:24.588Z,45189.69
2023-03-23T22:06:31.148Z,45167.72
2023-03-23T22:11:38.624Z,45183.69
2023-03-23T22:16:43.004Z,45193.69
2023-03-23T22:21:47.713Z,45173.72
2023-03-23T22:26:53.524Z,45159.72
2023-03-23T22:31:58.349Z,45171.72
2023-03-23T22:37:04.294Z,45181.69
2023-03-23T22:42:11.752Z,45193.69
2023-03-23T22:47:17.554Z,45207.66
2023-03-23T22:52:22.276Z,45213.63
2023-03-23T22:57:28.137Z,45193.69
2023-03-23T23:02:32.593Z,45193.69
2023-03-23T23:07:36.988Z,45193.69
2023-03-23T23:12:45.952Z,45189.69
2023-03-23T23:17:50.360Z,45195.66
2023-03-23T23:22:54.639Z,45171.72
2023-03-23T23:28:02.414Z,45203.66
2023-03-23T23:33:07.661Z,45199.66
2023-03-23T23:38:12.833Z,45207.66
2023-03-23T23:43:19.123Z,45187.69
2023-03-23T23:48:23.383Z,45207.66
2023-03-23T23:53:27.845Z,45227.63
2023-03-23T23:58:33.882Z,45195.66
